createdAt,value
2022-09-18T00:01:38.772Z,97714.81
2022-09-18T00:04:08.630Z,97713.25
2022-09-18T00:06:38.564Z,97702.16
2022-09-18T00:09:10.317Z,97721.25
2022-09-18T00:11:41.323Z,97721.63
2022-09-18T00:14:11.101Z,97702.97
2022-09-18T00:16:39.439Z,97714.09
2022-09-18T00:19:07.529Z,97726.84
2022-09-18T00:21:37.386Z,97728.88
2022-09-18T00:24:05.877Z,97734.06
2022-09-18T00:26:33.562Z,97721.75
2022-09-18T00:29:00.872Z,97717.72
2022-09-18T00:31:30.792Z,97727.66
2022-09-18T00:34:00.825Z,97726.09
2022-09-18T00:36:30.035Z,97742.78
2022-09-18T00:39:01.520Z,97727.72
2022-09-18T00:41:38.599Z,97712.69
2022-09-18T00:44:42.181Z,97729.00
2022-09-18T00:47:12.465Z,97731.78
2022-09-18T00:49:43.405Z,97732.22
2022-09-18T00:52:11.982Z,97723.47
2022-09-18T00:54:43.587Z,97733.41
2022-09-18T00:57:24.998Z,97735.81
2022-09-18T00:59:52.873Z,97741.00
2022-09-18T01:02:20.540Z,97723.91
2022-09-18T01:04:49.443Z,97749.00
2022-09-18T01:07:31.778Z,97764.06
2022-09-18T01:10:24.433Z,97762.91
2022-09-18T01:13:00.354Z,97790.31
2022-09-18T01:15:57.306Z,97805.44
2022-09-18T01:18:48.790Z,97816.97
2022-09-18T01:21:32.240Z,97818.56
2022-09-18T01:24:11.711Z,97851.53
2022-09-18T01:26:59.522Z,97871.03
2022-09-18T01:29:45.836Z,97879.78
2022-09-18T01:32:41.122Z,97892.06
2022-09-18T01:35:36.842Z,97899.63
2022-09-18T01:38:32.544Z,97917.13
2022-09-18T01:41:08.601Z,97929.09
2022-09-18T01:43:38.769Z,97930.66
2022-09-18T01:46:12.452Z,97918.75
2022-09-18T01:48:59.982Z,97937.44
2022-09-18T01:51:35.188Z,97925.13
2022-09-18T01:54:15.947Z,97926.31
2022-09-18T01:56:57.462Z,97940.22
2022-09-18T01:59:37.350Z,97950.59
2022-09-18T02:02:21.496Z,97991.16
2022-09-18T02:04:55.670Z,97989.16
2022-09-18T02:07:34.663Z,98023.34
2022-09-18T02:10:02.926Z,98071.81
2022-09-18T02:12:35.847Z,98068.09
2022-09-18T02:15:13.634Z,98087.91
2022-09-18T02:18:06.905Z,98109.00
2022-09-18T02:20:42.371Z,98136.34
2022-09-18T02:23:10.518Z,98133.47
2022-09-18T02:25:47.802Z,98103.44
2022-09-18T02:28:18.239Z,98152.00
2022-09-18T02:30:46.030Z,98155.09
2022-09-18T02:33:33.024Z,98142.22
2022-09-18T02:36:10.560Z,98167.59
2022-09-18T02:38:58.154Z,98165.19
2022-09-18T02:41:50.245Z,98176.28
2022-09-18T02:44:43.387Z,98179.41
2022-09-18T02:47:30.777Z,98186.16
2022-09-18T02:50:13.157Z,98185.34
2022-09-18T02:52:52.776Z,98213.13
2022-09-18T02:55:30.491Z,98212.53
2022-09-18T02:58:09.605Z,98226.00
2022-09-18T03:00:44.020Z,98233.16
2022-09-18T03:03:18.157Z,98240.69
2022-09-18T03:05:52.478Z,98248.97
2022-09-18T03:08:19.678Z,98263.97
2022-09-18T03:10:46.976Z,98262.34
2022-09-18T03:13:15.371Z,98267.59
2022-09-18T03:15:42.917Z,98267.88
2022-09-18T03:18:10.932Z,98283.72
2022-09-18T03:20:41.818Z,98286.09
2022-09-18T03:23:12.269Z,98290.78
2022-09-18T03:25:41.097Z,98301.56
2022-09-18T03:28:10.081Z,98280.53
2022-09-18T03:30:41.515Z,98301.56
2022-09-18T03:33:08.836Z,98318.16
2022-09-18T03:35:36.302Z,98312.50
2022-09-18T03:38:03.618Z,98317.56
2022-09-18T03:40:31.835Z,98319.34
2022-09-18T03:43:02.814Z,98334.28
2022-09-18T03:45:30.039Z,98321.47
2022-09-18T03:47:57.106Z,98334.91
2022-09-18T03:50:25.306Z,98358.25
2022-09-18T03:52:53.253Z,98372.06
2022-09-18T03:55:50.786Z,98362.56
2022-09-18T03:58:27.068Z,98365.94
2022-09-18T04:01:32.551Z,98379.97
2022-09-18T04:04:18.305Z,98383.75
2022-09-18T04:07:04.434Z,98386.16
2022-09-18T04:10:10.270Z,98396.75
2022-09-18T04:12:39.358Z,98384.38
2022-09-18T04:15:19.196Z,98405.66
2022-09-18T04:17:47.928Z,98408.00
2022-09-18T04:20:15.331Z,98409.72
2022-09-18T04:22:42.851Z,98431.19
2022-09-18T04:25:10.506Z,98419.13
2022-09-18T04:27:38.797Z,98431.88
2022-09-18T04:30:06.558Z,98444.13
2022-09-18T04:32:35.569Z,98449.22
2022-09-18T04:35:03.633Z,98452.06
2022-09-18T04:37:31.911Z,98453.44
2022-09-18T04:40:01.564Z,98459.66
2022-09-18T04:42:31.242Z,98457.47
2022-09-18T04:44:58.566Z,98469.94
2022-09-18T04:47:25.886Z,98458.72
2022-09-18T04:49:53.945Z,98475.88
2022-09-18T04:52:21.823Z,98474.22
2022-09-18T04:54:49.002Z,98479.50
2022-09-18T04:57:16.469Z,98481.56
2022-09-18T04:59:47.203Z,98502.38
2022-09-18T05:02:14.896Z,98501.56
2022-09-18T05:04:42.421Z,98516.66
2022-09-18T05:07:21.965Z,98521.09
2022-09-18T05:09:49.765Z,98519.59
2022-09-18T05:12:17.770Z,98512.63
2022-09-18T05:14:46.793Z,98523.88
2022-09-18T05:17:17.463Z,98509.78
2022-09-18T05:19:58.360Z,98514.59
2022-09-18T05:22:27.194Z,98524.91
2022-09-18T05:24:54.311Z,98527.75
2022-09-18T05:27:26.624Z,98547.81
2022-09-18T05:29:54.719Z,98536.66
2022-09-18T05:32:26.755Z,98525.31
2022-09-18T05:34:53.994Z,98556.38
2022-09-18T05:37:21.862Z,98555.66
2022-09-18T05:39:53.240Z,98558.34
2022-09-18T05:42:20.782Z,98560.66
2022-09-18T05:44:49.384Z,98556.00
2022-09-18T05:47:21.445Z,98550.22
2022-09-18T05:49:48.794Z,98531.19
2022-09-18T05:52:16.428Z,98541.84
2022-09-18T05:54:44.334Z,98529.41
2022-09-18T05:57:11.371Z,98527.25
2022-09-18T05:59:38.490Z,98531.53
2022-09-18T06:02:06.245Z,98539.28
2022-09-18T06:04:56.261Z,98537.69
2022-09-18T06:07:23.833Z,98533.28
2022-09-18T06:09:51.108Z,98524.00
2022-09-18T06:12:18.117Z,98544.09
2022-09-18T06:14:45.795Z,98541.41
2022-09-18T06:17:14.537Z,98545.28
2022-09-18T06:19:41.774Z,98540.63
2022-09-18T06:22:10.234Z,98547.59
2022-09-18T06:24:37.374Z,98549.44
2022-09-18T06:27:10.549Z,98567.31
2022-09-18T06:29:41.633Z,98563.34
2022-09-18T06:32:14.844Z,98583.84
2022-09-18T06:34:43.019Z,98564.97
2022-09-18T06:37:14.048Z,98550.13
2022-09-18T06:39:51.046Z,98575.03
2022-09-18T06:42:37.467Z,98564.91
2022-09-18T06:45:34.367Z,98569.09
2022-09-18T06:48:02.979Z,98576.38
2022-09-18T06:50:31.126Z,98570.69
2022-09-18T06:53:03.170Z,98571.41
2022-09-18T06:55:34.619Z,98570.47
2022-09-18T06:58:01.870Z,98574.41
2022-09-18T07:00:29.451Z,98555.81
2022-09-18T07:03:01.204Z,98561.94
2022-09-18T07:05:48.000Z,98545.38
2022-09-18T07:08:29.132Z,98584.75
2022-09-18T07:11:06.524Z,98575.78
2022-09-18T07:13:37.649Z,98583.56
2022-09-18T07:16:06.498Z,98580.13
2022-09-18T07:18:33.982Z,98584.66
2022-09-18T07:21:01.895Z,98604.78
2022-09-18T07:23:36.600Z,98597.78
2022-09-18T07:26:04.813Z,98617.34
2022-09-18T07:28:33.993Z,98608.59
2022-09-18T07:31:13.919Z,98615.88
2022-09-18T07:33:55.599Z,98615.28
2022-09-18T07:36:28.323Z,98622.63
2022-09-18T07:38:56.592Z,98605.06
2022-09-18T07:41:29.278Z,98609.63
2022-09-18T07:43:56.713Z,98618.91
2022-09-18T07:46:24.664Z,98629.63
2022-09-18T07:48:56.977Z,98647.28
2022-09-18T07:51:27.823Z,98637.34
2022-09-18T07:53:57.089Z,98627.63
2022-09-18T07:56:47.713Z,98639.38
2022-09-18T07:59:21.396Z,98615.00
2022-09-18T08:01:56.624Z,98630.31
2022-09-18T08:04:25.739Z,98634.38
2022-09-18T08:07:10.339Z,98635.13
2022-09-18T08:09:58.270Z,98637.94
2022-09-18T08:12:49.028Z,98627.69
2022-09-18T08:15:41.180Z,98659.75
2022-09-18T08:18:46.910Z,98642.59
2022-09-18T08:21:40.092Z,98658.50
2022-09-18T08:24:13.876Z,98658.09
2022-09-18T08:26:44.701Z,98659.56
2022-09-18T08:29:18.953Z,98657.53
2022-09-18T08:32:07.742Z,98660.28
2022-09-18T08:34:37.711Z,98654.13
2022-09-18T08:37:05.213Z,98655.59
2022-09-18T08:39:53.443Z,98679.88
2022-09-18T08:42:55.648Z,98679.03
2022-09-18T08:45:50.069Z,98681.28
2022-09-18T08:48:26.384Z,98680.59
2022-09-18T08:51:00.551Z,98669.88
2022-09-18T08:53:43.296Z,98661.63
2022-09-18T08:56:34.994Z,98677.59
2022-09-18T08:59:32.755Z,98686.53
2022-09-18T09:02:37.924Z,98683.31
2022-09-18T09:05:37.192Z,98670.69
2022-09-18T09:08:38.373Z,98670.69
2022-09-18T09:11:35.132Z,98683.88
2022-09-18T09:14:52.719Z,98676.63
2022-09-18T09:17:22.754Z,98669.22
2022-09-18T09:20:01.127Z,98668.00
2022-09-18T09:22:51.617Z,98669.22
2022-09-18T09:25:47.614Z,98661.56
2022-09-18T09:28:34.278Z,98658.41
2022-09-18T09:31:20.701Z,98651.97
2022-09-18T09:34:07.028Z,98660.50
2022-09-18T09:36:58.782Z,98668.47
2022-09-18T09:39:40.501Z,98671.84
2022-09-18T09:42:25.952Z,98680.03
2022-09-18T09:45:02.652Z,98684.09
2022-09-18T09:47:48.242Z,98685.94
2022-09-18T09:50:43.350Z,98680.47
2022-09-18T09:53:12.826Z,98692.56
2022-09-18T09:55:56.966Z,98688.63
2022-09-18T09:58:38.485Z,98704.66
2022-09-18T10:01:24.975Z,98690.50
2022-09-18T10:04:06.706Z,98709.16
2022-09-18T10:06:58.610Z,98678.53
2022-09-18T10:09:42.041Z,98683.72
2022-09-18T10:12:22.019Z,98686.94
2022-09-18T10:14:54.271Z,98672.13
2022-09-18T10:17:23.663Z,98685.63
2022-09-18T10:19:50.862Z,98686.53
2022-09-18T10:22:23.293Z,98705.13
2022-09-18T10:24:53.666Z,98705.31
2022-09-18T10:27:21.456Z,98680.69
2022-09-18T10:29:51.296Z,98666.28
2022-09-18T10:32:53.033Z,98677.59
2022-09-18T10:35:43.662Z,98678.28
2022-09-18T10:38:30.779Z,98690.69
2022-09-18T10:41:30.937Z,98676.06
2022-09-18T10:44:24.065Z,98690.44
2022-09-18T10:47:00.644Z,98675.25
2022-09-18T10:49:33.446Z,98688.72
2022-09-18T10:52:36.261Z,98685.59
2022-09-18T10:55:25.091Z,98679.97
2022-09-18T10:58:16.397Z,98635.09
2022-09-18T11:01:05.569Z,98671.16
2022-09-18T11:03:46.660Z,98683.56
2022-09-18T11:06:29.665Z,98691.88
2022-09-18T11:09:02.840Z,98696.28
2022-09-18T11:11:36.549Z,98662.13
2022-09-18T11:14:27.184Z,98686.59
2022-09-18T11:17:02.336Z,98684.38
2022-09-18T11:19:39.298Z,98681.97
2022-09-18T11:22:35.093Z,98670.00
2022-09-18T11:25:28.137Z,98677.78
2022-09-18T11:28:01.297Z,98685.72
2022-09-18T11:30:38.687Z,98677.41
2022-09-18T11:33:10.627Z,98680.69
2022-09-18T11:35:50.838Z,98683.53
2022-09-18T11:38:20.272Z,98677.00
2022-09-18T11:40:54.582Z,98685.84
2022-09-18T11:43:29.624Z,98700.97
2022-09-18T11:46:46.649Z,98689.53
2022-09-18T11:49:24.059Z,98682.66
2022-09-18T11:51:59.595Z,98689.13
2022-09-18T11:54:57.728Z,98684.75
2022-09-18T11:57:39.757Z,98693.03
2022-09-18T12:00:21.058Z,98687.88
2022-09-18T12:03:13.672Z,98703.88
2022-09-18T12:05:52.540Z,98710.16
2022-09-18T12:08:30.689Z,98708.91
2022-09-18T12:11:13.366Z,98683.41
2022-09-18T12:13:59.559Z,98684.72
2022-09-18T12:16:41.146Z,98675.88
2022-09-18T12:19:25.821Z,98687.59
2022-09-18T12:22:01.907Z,98686.81
2022-09-18T12:24:30.131Z,98704.38
2022-09-18T12:27:28.098Z,98698.34
2022-09-18T12:30:15.496Z,98701.13
2022-09-18T12:33:08.594Z,98715.84
2022-09-18T12:35:44.860Z,98712.66
2022-09-18T12:38:36.712Z,98705.84
2022-09-18T12:41:10.417Z,98716.09
2022-09-18T12:44:19.027Z,98733.16
2022-09-18T12:47:22.110Z,98722.84
2022-09-18T12:49:58.709Z,98723.22
2022-09-18T12:52:28.753Z,98732.84
2022-09-18T12:54:58.888Z,98732.03
2022-09-18T12:57:48.257Z,98712.47
2022-09-18T13:00:16.725Z,98730.84
2022-09-18T13:02:51.539Z,98736.84
2022-09-18T13:05:40.898Z,98758.00
2022-09-18T13:08:17.762Z,98735.28
2022-09-18T13:10:47.369Z,98744.91
2022-09-18T13:13:44.123Z,98747.31
2022-09-18T13:16:21.877Z,98750.16
2022-09-18T13:19:04.112Z,98756.81
2022-09-18T13:21:38.570Z,98756.75
2022-09-18T13:24:07.131Z,98746.75
2022-09-18T13:26:39.725Z,98737.59
2022-09-18T13:29:44.602Z,98767.16
2022-09-18T13:32:13.835Z,98765.97
2022-09-18T13:34:52.678Z,98747.88
2022-09-18T13:37:23.036Z,98802.47
2022-09-18T13:40:09.684Z,98784.19
2022-09-18T13:42:42.933Z,98786.19
2022-09-18T13:45:20.646Z,98794.16
2022-09-18T13:48:04.790Z,98792.59
2022-09-18T13:50:34.531Z,98799.75
2022-09-18T13:53:04.255Z,98798.94
2022-09-18T13:55:37.594Z,98790.16
2022-09-18T13:58:35.586Z,98792.81
2022-09-18T14:01:10.567Z,98799.03
2022-09-18T14:03:40.587Z,98825.78
2022-09-18T14:06:37.205Z,98813.25
2022-09-18T14:09:46.833Z,98818.38
2022-09-18T14:12:16.082Z,98818.75
2022-09-18T14:14:44.731Z,98817.25
2022-09-18T14:17:14.209Z,98824.91
2022-09-18T14:19:45.202Z,98829.47
2022-09-18T14:22:29.061Z,98826.78
2022-09-18T14:25:00.676Z,98836.06
2022-09-18T14:27:36.155Z,98826.97
2022-09-18T14:30:28.007Z,98834.53
2022-09-18T14:33:19.107Z,98855.19
2022-09-18T14:35:56.074Z,98844.84
2022-09-18T14:38:26.000Z,98853.13
2022-09-18T14:41:01.186Z,98837.16
2022-09-18T14:43:28.440Z,98867.88
2022-09-18T14:45:56.117Z,98848.78
2022-09-18T14:48:29.327Z,98851.81
2022-09-18T14:51:02.563Z,98858.09
2022-09-18T14:53:30.764Z,98858.88
2022-09-18T14:56:04.113Z,98854.81
2022-09-18T14:58:37.811Z,98869.75
2022-09-18T15:01:08.796Z,98880.38
2022-09-18T15:03:47.067Z,98863.84
2022-09-18T15:06:14.480Z,98887.38
2022-09-18T15:08:44.667Z,98884.09
2022-09-18T15:11:17.693Z,98887.19
2022-09-18T15:13:50.275Z,98902.59
2022-09-18T15:16:32.823Z,98888.47
2022-09-18T15:19:00.763Z,98894.84
2022-09-18T15:21:33.550Z,98884.03
2022-09-18T15:24:03.413Z,98896.09
2022-09-18T15:26:36.068Z,98905.88
2022-09-18T15:29:05.612Z,98923.03
2022-09-18T15:31:34.526Z,98913.81
2022-09-18T15:34:07.957Z,98908.13
2022-09-18T15:36:38.108Z,98916.69
2022-09-18T15:39:09.811Z,98911.56
2022-09-18T15:41:41.906Z,98915.41
2022-09-18T15:44:56.104Z,98915.84
2022-09-18T15:47:26.242Z,98921.41
2022-09-18T15:49:54.251Z,98920.03
2022-09-18T15:52:40.858Z,98909.94
2022-09-18T15:55:10.793Z,98912.88
2022-09-18T15:57:38.719Z,98915.25
2022-09-18T16:00:10.860Z,98916.72
2022-09-18T16:02:40.047Z,98926.97
2022-09-18T16:05:21.981Z,98931.66
2022-09-18T16:07:58.217Z,98942.41
2022-09-18T16:10:44.872Z,98938.31
2022-09-18T16:13:14.976Z,98942.22
2022-09-18T16:15:52.043Z,98940.31
2022-09-18T16:18:25.761Z,98938.06
2022-09-18T16:20:54.008Z,98947.25
2022-09-18T16:23:34.945Z,98960.72
2022-09-18T16:26:14.034Z,98956.19
2022-09-18T16:28:45.344Z,98966.56
2022-09-18T16:31:13.570Z,98965.31
2022-09-18T16:33:55.516Z,98972.41
2022-09-18T16:36:35.872Z,98986.59
2022-09-18T16:39:08.101Z,98986.03
2022-09-18T16:41:36.120Z,98980.84
2022-09-18T16:44:04.893Z,98998.06
2022-09-18T16:46:43.090Z,98975.41
2022-09-18T16:49:13.201Z,98998.22
2022-09-18T16:51:40.531Z,99006.69
2022-09-18T16:54:07.638Z,99006.59
2022-09-18T16:56:40.447Z,99010.97
2022-09-18T16:59:07.743Z,99009.81
2022-09-18T17:01:54.164Z,99022.81
2022-09-18T17:04:24.400Z,99012.44
2022-09-18T17:06:51.672Z,99023.03
2022-09-18T17:09:18.990Z,99026.06
2022-09-18T17:11:50.601Z,99026.06
2022-09-18T17:14:17.742Z,99033.50
2022-09-18T17:16:45.245Z,99037.81
2022-09-18T17:19:13.993Z,99033.06
2022-09-18T17:21:41.854Z,99035.41
2022-09-18T17:24:10.273Z,99048.81
2022-09-18T17:26:39.392Z,99049.28
2022-09-18T17:29:06.894Z,99050.34
2022-09-18T17:31:34.186Z,99060.09
2022-09-18T17:34:01.402Z,99058.13
2022-09-18T17:36:28.796Z,99063.78
2022-09-18T17:38:59.406Z,99058.50
2022-09-18T17:41:33.132Z,99070.66
2022-09-18T17:44:00.868Z,99074.41
2022-09-18T17:46:27.963Z,99065.28
2022-09-18T17:48:56.703Z,99078.81
2022-09-18T17:51:28.381Z,99077.34
2022-09-18T17:54:02.996Z,99079.31
2022-09-18T17:56:31.229Z,99081.91
2022-09-18T17:59:02.903Z,99085.13
2022-09-18T18:01:30.370Z,99102.69
2022-09-18T18:03:58.301Z,99095.41
2022-09-18T18:06:26.162Z,99105.97
2022-09-18T18:08:53.343Z,99099.06
2022-09-18T18:11:22.860Z,99104.34
2022-09-18T18:13:51.619Z,99105.75
2022-09-18T18:16:24.827Z,99124.28
2022-09-18T18:18:54.692Z,99118.03
2022-09-18T18:21:22.750Z,99117.50
2022-09-18T18:23:55.296Z,99095.03
2022-09-18T18:26:23.824Z,99135.88
2022-09-18T18:28:51.122Z,99122.25
2022-09-18T18:31:18.401Z,99134.59
2022-09-18T18:33:45.771Z,99123.66
2022-09-18T18:36:17.705Z,99123.53
2022-09-18T18:38:48.165Z,99128.31
2022-09-18T18:41:18.287Z,99110.00
2022-09-18T18:43:45.901Z,99130.97
2022-09-18T18:46:15.569Z,99139.19
2022-09-18T18:48:44.415Z,99121.88
2022-09-18T18:51:15.319Z,99136.09
2022-09-18T18:53:43.513Z,99141.28
2022-09-18T18:56:16.017Z,99141.19
2022-09-18T18:58:47.004Z,99153.53
2022-09-18T19:01:18.747Z,99144.88
2022-09-18T19:03:57.318Z,99152.25
2022-09-18T19:06:25.030Z,99149.38
2022-09-18T19:09:04.456Z,99144.75
2022-09-18T19:11:33.699Z,99158.38
2022-09-18T19:14:01.154Z,99162.88
2022-09-18T19:16:29.940Z,99163.69
2022-09-18T19:18:59.804Z,99157.91
2022-09-18T19:21:29.706Z,99172.22
2022-09-18T19:24:03.065Z,99167.38
2022-09-18T19:26:30.771Z,99170.63
2022-09-18T19:29:01.297Z,99169.81
2022-09-18T19:31:29.913Z,99158.16
2022-09-18T19:33:58.004Z,99175.69
2022-09-18T19:36:28.723Z,99171.78
2022-09-18T19:38:58.738Z,99180.19
2022-09-18T19:41:33.266Z,99172.13
2022-09-18T19:44:03.287Z,99170.06
2022-09-18T19:46:32.498Z,99180.56
2022-09-18T19:49:00.379Z,99190.50
2022-09-18T19:51:29.246Z,99194.31
2022-09-18T19:53:56.282Z,99198.47
2022-09-18T19:56:42.192Z,99201.81
2022-09-18T19:59:10.499Z,99194.66
2022-09-18T20:01:38.044Z,99201.47
2022-09-18T20:04:05.325Z,99189.09
2022-09-18T20:06:33.041Z,99184.00
2022-09-18T20:09:00.974Z,99191.31
2022-09-18T20:11:28.499Z,99193.50
2022-09-18T20:13:55.822Z,99195.94
2022-09-18T20:16:23.143Z,99198.81
2022-09-18T20:18:50.500Z,99203.31
2022-09-18T20:21:19.447Z,99204.00
2022-09-18T20:23:48.384Z,99205.03
2022-09-18T20:26:18.319Z,99198.69
2022-09-18T20:28:45.452Z,99200.78
2022-09-18T20:31:15.307Z,99211.50
2022-09-18T20:33:43.792Z,99211.16
2022-09-18T20:36:12.004Z,99203.78
2022-09-18T20:38:42.343Z,99200.66
2022-09-18T20:41:13.611Z,99185.19
2022-09-18T20:43:43.757Z,99178.13
2022-09-18T20:46:16.292Z,99180.44
2022-09-18T20:48:59.922Z,99185.28
2022-09-18T20:51:35.091Z,99212.06
2022-09-18T20:54:04.758Z,99191.50
2022-09-18T20:56:47.306Z,99215.38
2022-09-18T20:59:16.686Z,99193.56
2022-09-18T21:01:45.954Z,99214.09
2022-09-18T21:04:19.548Z,99213.16
2022-09-18T21:06:57.871Z,99198.38
2022-09-18T21:09:29.122Z,99208.31
2022-09-18T21:11:57.787Z,99211.53
2022-09-18T21:14:27.465Z,99213.75
2022-09-18T21:16:55.326Z,99213.28
2022-09-18T21:19:26.299Z,99216.44
2022-09-18T21:21:53.814Z,99221.59
2022-09-18T21:24:22.337Z,99220.97
2022-09-18T21:26:50.679Z,99202.38
2022-09-18T21:29:25.265Z,99214.66
2022-09-18T21:31:59.679Z,99215.53
2022-09-18T21:34:30.241Z,99224.50
2022-09-18T21:37:00.035Z,99224.50
2022-09-18T21:39:28.788Z,99211.50
2022-09-18T21:41:57.626Z,99217.03
2022-09-18T21:44:29.686Z,99205.56
2022-09-18T21:46:59.855Z,99208.19
2022-09-18T21:49:29.157Z,99201.25
2022-09-18T21:51:58.579Z,99213.59
2022-09-18T21:54:27.174Z,99211.97
2022-09-18T21:56:55.422Z,99215.41
2022-09-18T21:59:25.452Z,99217.81
2022-09-18T22:01:55.231Z,99218.16
2022-09-18T22:04:26.343Z,99230.97
2022-09-18T22:06:56.105Z,99162.84
2022-09-18T22:09:32.023Z,99223.78
2022-09-18T22:12:01.321Z,99196.09
2022-09-18T22:14:32.466Z,99223.50
2022-09-18T22:17:04.339Z,99226.63
2022-09-18T22:19:33.450Z,99215.16
2022-09-18T22:22:01.537Z,99218.38
2022-09-18T22:24:29.218Z,99222.75
2022-09-18T22:27:08.753Z,99222.28
2022-09-18T22:29:38.221Z,99218.22
2022-09-18T22:32:06.176Z,99211.28
2022-09-18T22:34:37.468Z,99221.34
2022-09-18T22:37:04.583Z,99221.91
2022-09-18T22:39:31.711Z,99219.00
2022-09-18T22:41:59.121Z,99204.56
2022-09-18T22:44:26.259Z,99207.66
2022-09-18T22:46:53.501Z,99205.84
2022-09-18T22:49:22.758Z,99190.00
2022-09-18T22:51:50.681Z,99194.22
2022-09-18T22:54:23.836Z,99193.81
2022-09-18T22:56:52.330Z,99190.38
2022-09-18T22:59:21.771Z,99196.06
2022-09-18T23:02:02.606Z,99195.91
2022-09-18T23:04:31.777Z,99186.34
2022-09-18T23:06:59.378Z,99191.53
2022-09-18T23:09:27.539Z,99202.38
2022-09-18T23:11:55.295Z,99191.03
2022-09-18T23:14:28.279Z,99196.28
2022-09-18T23:16:56.562Z,99186.41
2022-09-18T23:19:26.923Z,99196.44
2022-09-18T23:21:54.847Z,99196.13
2022-09-18T23:24:23.282Z,99192.28
2022-09-18T23:26:53.663Z,99194.72
2022-09-18T23:29:24.615Z,99194.56
2022-09-18T23:31:53.604Z,99194.41
2022-09-18T23:34:24.159Z,99195.69
2022-09-18T23:36:53.369Z,99203.81
2022-09-18T23:39:29.251Z,99195.72
2022-09-18T23:41:58.958Z,99193.44
2022-09-18T23:44:28.714Z,99198.97
2022-09-18T23:46:56.366Z,99216.03
2022-09-18T23:49:24.037Z,99209.22
2022-09-18T23:51:53.245Z,99207.63
2022-09-18T23:54:23.608Z,99198.84
2022-09-18T23:56:51.639Z,99208.28
2022-09-18T23:59:22.885Z,99221.59
